createdAt,value
2019-02-28T00:00:44.615Z,45.60
2019-02-28T00:03:12.459Z,45.10
2019-02-28T00:05:40.333Z,44.90
2019-02-28T00:08:08.930Z,45.80
2019-02-28T00:10:36.795Z,45.50
2019-02-28T00:13:04.639Z,45.50
2019-02-28T00:15:32.506Z,45.40
2019-02-28T00:18:00.342Z,46.20
2019-02-28T00:20:29.127Z,45.80
2019-02-28T00:22:57.791Z,45.50
2019-02-28T00:25:25.684Z,45.60
2019-02-28T00:27:53.803Z,45.20
2019-02-28T00:30:21.667Z,45.50
2019-02-28T00:32:49.507Z,45.50
2019-02-28T00:35:17.356Z,45.70
2019-02-28T00:37:45.203Z,44.90
2019-02-28T00:40:13.043Z,45.10
2019-02-28T00:42:40.882Z,44.90
2019-02-28T00:45:09.387Z,45.10
2019-02-28T00:47:37.234Z,44.90
2019-02-28T00:50:05.278Z,45.00
2019-02-28T00:52:35.477Z,44.70
2019-02-28T00:55:02.691Z,45.30
2019-02-28T00:57:30.532Z,44.90
2019-02-28T00:59:58.728Z,44.30
2019-02-28T01:02:26.903Z,44.90
2019-02-28T01:04:55.076Z,44.30
2019-02-28T01:07:23.249Z,44.50
2019-02-28T01:09:51.123Z,44.20
2019-02-28T01:12:19.930Z,44.60
2019-02-28T01:14:47.979Z,44.50
2019-02-28T01:17:15.903Z,44.50
2019-02-28T01:19:43.749Z,44.10
2019-02-28T01:22:11.595Z,44.80
2019-02-28T01:24:39.439Z,44.20
2019-02-28T01:27:07.279Z,44.50
2019-02-28T01:29:35.685Z,43.20
2019-02-28T01:32:04.243Z,43.30
2019-02-28T01:34:33.058Z,44.30
2019-02-28T01:37:01.059Z,44.30
2019-02-28T01:39:29.989Z,44.30
2019-02-28T01:41:58.632Z,43.20
2019-02-28T01:44:26.475Z,43.30
2019-02-28T01:46:54.425Z,43.50
2019-02-28T01:49:25.945Z,42.70
2019-02-28T01:51:51.838Z,43.00
2019-02-28T01:54:19.685Z,43.00
2019-02-28T01:56:47.530Z,43.00
2019-02-28T01:59:15.712Z,43.10
2019-02-28T02:01:43.563Z,42.80
2019-02-28T02:04:12.544Z,42.80
2019-02-28T02:06:41.018Z,43.00
2019-02-28T02:09:10.993Z,42.70
2019-02-28T02:11:39.032Z,42.70
2019-02-28T02:14:07.552Z,42.70
2019-02-28T02:16:36.716Z,42.70
2019-02-28T02:19:04.560Z,42.70
2019-02-28T02:21:34.837Z,42.70
2019-02-28T02:24:02.255Z,43.00
2019-02-28T02:26:30.430Z,42.90
2019-02-28T02:29:00.930Z,43.00
2019-02-28T02:31:29.038Z,43.10
2019-02-28T02:33:57.276Z,43.20
2019-02-28T02:36:25.118Z,43.20
2019-02-28T02:38:52.956Z,43.50
2019-02-28T02:41:21.135Z,43.10
2019-02-28T02:43:49.440Z,43.00
2019-02-28T02:46:20.211Z,43.10
2019-02-28T02:48:47.571Z,43.30
2019-02-28T02:51:15.442Z,43.20
2019-02-28T02:53:43.621Z,43.20
2019-02-28T02:56:11.631Z,43.20
2019-02-28T02:58:39.757Z,43.30
2019-02-28T03:01:08.031Z,43.30
2019-02-28T03:03:42.963Z,43.30
2019-02-28T03:06:12.129Z,43.30
2019-02-28T03:08:36.390Z,43.50
2019-02-28T03:11:04.670Z,43.50
2019-02-28T03:13:32.509Z,43.60
2019-02-28T03:16:00.550Z,43.60
2019-02-28T03:18:28.928Z,43.70
2019-02-28T03:20:56.775Z,43.70
2019-02-28T03:23:24.619Z,43.70
2019-02-28T03:25:52.580Z,43.80
2019-02-28T03:28:20.427Z,43.80
2019-02-28T03:30:48.269Z,43.80
2019-02-28T03:33:27.148Z,43.80
2019-02-28T03:35:46.352Z,43.90
2019-02-28T03:38:14.193Z,43.80
2019-02-28T03:40:42.042Z,44.00
2019-02-28T03:43:09.889Z,44.20
2019-02-28T03:45:37.730Z,44.70
2019-02-28T03:48:05.572Z,44.10
2019-02-28T03:50:33.438Z,44.10
2019-02-28T03:53:01.340Z,44.50
2019-02-28T03:55:29.188Z,44.50
2019-02-28T03:58:03.741Z,44.60
2019-02-28T04:00:32.617Z,44.60
2019-02-28T04:02:58.446Z,44.80
2019-02-28T04:05:28.185Z,44.50
2019-02-28T04:07:55.743Z,44.90
2019-02-28T04:10:23.857Z,44.90
2019-02-28T04:12:52.020Z,44.80
2019-02-28T04:15:19.981Z,45.00
2019-02-28T04:17:47.815Z,45.00
2019-02-28T04:20:16.033Z,45.00
2019-02-28T04:22:43.892Z,44.70
2019-02-28T04:25:11.804Z,44.60
2019-02-28T04:27:41.593Z,45.10
2019-02-28T04:30:10.056Z,45.00
2019-02-28T04:32:38.232Z,44.90
2019-02-28T04:35:06.184Z,44.70
2019-02-28T04:37:34.368Z,44.70
2019-02-28T04:40:02.259Z,45.00
2019-02-28T04:42:30.108Z,44.90
2019-02-28T04:44:57.978Z,45.00
2019-02-28T04:47:25.832Z,44.80
2019-02-28T04:49:57.035Z,45.10
2019-02-28T04:52:23.574Z,44.90
2019-02-28T04:54:51.410Z,44.90
2019-02-28T04:57:20.684Z,44.90
2019-02-28T04:59:49.180Z,44.80
2019-02-28T05:02:19.721Z,44.90
2019-02-28T05:04:46.603Z,44.70
2019-02-28T05:07:14.507Z,44.80
2019-02-28T05:09:45.259Z,45.00
2019-02-28T05:12:12.255Z,44.80
2019-02-28T05:14:40.099Z,44.90
2019-02-28T05:17:07.947Z,44.90
2019-02-28T05:19:36.564Z,44.90
2019-02-28T05:22:04.599Z,44.90
2019-02-28T05:24:32.512Z,44.10
2019-02-28T05:27:01.278Z,44.80
2019-02-28T05:29:29.279Z,45.00
2019-02-28T05:31:58.073Z,44.80
2019-02-28T05:34:26.988Z,44.70
2019-02-28T05:36:54.840Z,44.80
2019-02-28T05:39:22.715Z,44.50
2019-02-28T05:41:50.637Z,44.70
2019-02-28T05:44:18.846Z,44.50
2019-02-28T05:46:46.682Z,44.40
2019-02-28T05:49:14.529Z,44.10
2019-02-28T05:51:42.640Z,43.90
2019-02-28T05:54:15.946Z,43.00
2019-02-28T05:56:40.727Z,43.70
2019-02-28T05:59:08.595Z,45.40
2019-02-28T06:01:36.459Z,46.10
2019-02-28T06:04:04.376Z,46.00
2019-02-28T06:06:32.605Z,45.60
2019-02-28T06:09:00.779Z,45.90
2019-02-28T06:11:34.515Z,45.60
2019-02-28T06:13:58.655Z,45.60
2019-02-28T06:16:26.524Z,45.30
2019-02-28T06:18:54.459Z,45.40
2019-02-28T06:21:23.471Z,45.30
2019-02-28T06:23:52.379Z,45.60
2019-02-28T06:26:20.243Z,46.10
2019-02-28T06:28:48.418Z,46.50
2019-02-28T06:31:16.291Z,46.50
2019-02-28T06:33:44.198Z,45.10
2019-02-28T06:36:12.424Z,44.10
2019-02-28T06:38:40.599Z,44.10
2019-02-28T06:41:08.814Z,44.00
2019-02-28T06:43:37.094Z,43.50
2019-02-28T06:46:04.935Z,43.80
2019-02-28T06:48:32.791Z,43.80
2019-02-28T06:51:00.630Z,43.50
2019-02-28T06:53:32.165Z,43.70
2019-02-28T06:56:00.375Z,43.40
2019-02-28T06:58:30.466Z,43.60
2019-02-28T07:00:57.785Z,43.50
2019-02-28T07:03:25.627Z,43.40
2019-02-28T07:05:53.535Z,43.30
2019-02-28T07:08:24.783Z,43.20
2019-02-28T07:10:51.263Z,43.30
2019-02-28T07:13:19.115Z,43.10
2019-02-28T07:15:46.958Z,43.20
2019-02-28T07:18:15.159Z,43.00
2019-02-28T07:20:43.008Z,43.20
2019-02-28T07:23:10.856Z,43.10
2019-02-28T07:25:38.706Z,43.20
2019-02-28T07:28:06.931Z,42.90
2019-02-28T07:30:35.214Z,43.10
2019-02-28T07:33:09.357Z,43.10
2019-02-28T07:35:33.771Z,42.90
2019-02-28T07:38:02.243Z,43.50
2019-02-28T07:40:30.360Z,43.00
2019-02-28T07:42:58.219Z,44.50
2019-02-28T07:45:26.060Z,43.90
2019-02-28T07:47:53.905Z,44.80
2019-02-28T07:50:21.750Z,45.40
2019-02-28T07:52:49.598Z,45.40
2019-02-28T07:55:17.471Z,45.60
2019-02-28T07:57:48.344Z,45.30
2019-02-28T08:00:18.164Z,45.10
2019-02-28T08:02:45.935Z,44.40
2019-02-28T08:05:14.049Z,44.20
2019-02-28T08:07:42.515Z,44.60
2019-02-28T08:10:12.818Z,43.90
2019-02-28T08:12:41.132Z,44.00
2019-02-28T08:15:11.032Z,44.00
2019-02-28T08:17:40.652Z,44.00
2019-02-28T08:20:08.863Z,44.10
2019-02-28T08:22:36.736Z,44.10
2019-02-28T08:25:07.841Z,44.30
2019-02-28T08:27:35.999Z,44.20
2019-02-28T08:30:04.386Z,44.30
2019-02-28T08:32:33.846Z,44.30
2019-02-28T08:35:02.019Z,44.40
2019-02-28T08:37:30.087Z,44.40
2019-02-28T08:39:57.926Z,44.60
2019-02-28T08:42:26.164Z,44.50
2019-02-28T08:44:58.052Z,44.70
2019-02-28T08:47:23.603Z,44.60
2019-02-28T08:49:51.519Z,44.70
2019-02-28T08:52:19.775Z,45.30
2019-02-28T08:54:47.648Z,45.40
2019-02-28T08:57:15.521Z,45.70
2019-02-28T08:59:43.376Z,45.40
2019-02-28T09:02:11.247Z,45.20
2019-02-28T09:04:41.527Z,45.00
2019-02-28T09:07:08.759Z,45.20
2019-02-28T09:09:36.891Z,44.90
2019-02-28T09:12:05.059Z,45.00
2019-02-28T09:14:32.900Z,45.10
2019-02-28T09:17:00.834Z,45.00
2019-02-28T09:19:28.682Z,45.10
2019-02-28T09:21:56.832Z,45.00
2019-02-28T09:24:26.014Z,44.90
2019-02-28T09:26:54.430Z,45.90
2019-02-28T09:29:22.311Z,46.90
2019-02-28T09:31:50.482Z,47.20
2019-02-28T09:34:18.726Z,47.20
2019-02-28T09:36:46.566Z,47.40
2019-02-28T09:39:16.300Z,47.50
2019-02-28T09:41:44.335Z,47.60
2019-02-28T09:44:12.200Z,47.50
2019-02-28T09:46:40.422Z,47.60
2019-02-28T09:49:12.066Z,47.40
2019-02-28T09:51:38.215Z,47.50
2019-02-28T09:54:06.083Z,47.40
2019-02-28T09:56:33.927Z,47.40
2019-02-28T09:59:03.238Z,47.40
2019-02-28T10:01:32.113Z,47.40
2019-02-28T10:04:00.283Z,47.60
2019-02-28T10:06:28.460Z,47.60
2019-02-28T10:08:56.329Z,47.50
2019-02-28T10:11:24.167Z,47.50
2019-02-28T10:13:53.292Z,47.40
2019-02-28T10:16:21.647Z,47.50
2019-02-28T10:18:49.594Z,47.30
2019-02-28T10:21:17.703Z,47.20
2019-02-28T10:23:45.648Z,47.10
2019-02-28T10:26:14.330Z,47.10
2019-02-28T10:28:43.159Z,47.10
2019-02-28T10:31:11.050Z,47.10
2019-02-28T10:33:39.075Z,47.00
2019-02-28T10:36:09.344Z,47.10
2019-02-28T10:38:36.867Z,46.80
2019-02-28T10:41:04.789Z,46.60
2019-02-28T10:43:33.008Z,46.30
2019-02-28T10:46:00.862Z,46.50
2019-02-28T10:48:29.044Z,47.30
2019-02-28T10:50:57.228Z,47.60
2019-02-28T10:53:25.096Z,45.70
2019-02-28T10:55:54.473Z,46.40
2019-02-28T10:58:22.530Z,46.90
2019-02-28T11:00:50.732Z,46.90
2019-02-28T11:03:18.679Z,47.20
2019-02-28T11:05:46.676Z,47.10
2019-02-28T11:08:17.401Z,47.20
2019-02-28T11:10:44.521Z,47.10
2019-02-28T11:13:13.339Z,47.30
2019-02-28T11:15:41.439Z,47.50
2019-02-28T11:18:10.015Z,47.30
2019-02-28T11:20:38.780Z,47.30
2019-02-28T11:23:07.670Z,47.40
2019-02-28T11:25:35.767Z,47.40
2019-02-28T11:28:03.611Z,47.40
2019-02-28T11:30:31.479Z,47.60
2019-02-28T11:33:03.242Z,47.60
2019-02-28T11:35:29.382Z,47.30
2019-02-28T11:37:57.531Z,47.60
2019-02-28T11:40:26.496Z,47.00
2019-02-28T11:42:54.619Z,47.10
2019-02-28T11:45:25.356Z,47.10
2019-02-28T11:47:53.273Z,47.10
2019-02-28T11:50:21.478Z,47.70
2019-02-28T11:52:49.411Z,47.40
2019-02-28T11:55:20.391Z,47.40
2019-02-28T11:57:47.731Z,47.70
2019-02-28T12:00:17.479Z,47.70
2019-02-28T12:02:53.046Z,47.70
2019-02-28T12:05:15.791Z,47.80
2019-02-28T12:07:45.135Z,46.40
2019-02-28T12:10:12.979Z,46.70
2019-02-28T12:12:41.546Z,46.50
2019-02-28T12:15:11.255Z,46.20
2019-02-28T12:17:39.363Z,46.20
2019-02-28T12:20:08.009Z,47.10
2019-02-28T12:22:36.315Z,46.20
2019-02-28T12:25:07.606Z,47.80
2019-02-28T12:27:34.651Z,47.70
2019-02-28T12:30:02.776Z,47.10
2019-02-28T12:32:30.620Z,48.60
2019-02-28T12:35:01.140Z,46.90
2019-02-28T12:37:28.108Z,48.40
2019-02-28T12:39:56.305Z,47.80
2019-02-28T12:42:24.475Z,46.00
2019-02-28T12:44:52.319Z,45.80
2019-02-28T12:47:20.244Z,46.40
2019-02-28T12:49:48.087Z,46.90
2019-02-28T12:52:16.018Z,46.50
2019-02-28T12:54:43.859Z,46.30
2019-02-28T12:57:11.699Z,46.50
2019-02-28T12:59:41.772Z,45.50
2019-02-28T13:02:09.970Z,45.90
2019-02-28T13:04:38.140Z,46.10
2019-02-28T13:07:05.979Z,46.30
2019-02-28T13:09:34.179Z,46.10
2019-02-28T13:12:02.031Z,46.20
2019-02-28T13:14:29.868Z,46.30
2019-02-28T13:16:58.286Z,46.20
2019-02-28T13:19:26.227Z,46.90
2019-02-28T13:21:54.063Z,46.50
2019-02-28T13:24:21.911Z,46.10
2019-02-28T13:26:49.755Z,45.90
2019-02-28T13:29:17.704Z,45.70
2019-02-28T13:31:45.594Z,45.70
2019-02-28T13:34:13.441Z,45.70
2019-02-28T13:36:41.279Z,46.10
2019-02-28T13:39:09.731Z,46.40
2019-02-28T13:41:37.578Z,47.00
2019-02-28T13:44:05.416Z,46.30
2019-02-28T13:46:34.435Z,46.70
2019-02-28T13:49:02.387Z,47.10
2019-02-28T13:51:32.144Z,47.00
2019-02-28T13:54:03.120Z,47.30
2019-02-28T13:56:33.014Z,46.60
2019-02-28T13:58:59.293Z,47.40
2019-02-28T14:01:27.137Z,47.40
2019-02-28T14:03:54.973Z,46.90
2019-02-28T14:06:22.810Z,47.20
2019-02-28T14:08:50.659Z,46.70
2019-02-28T14:11:18.503Z,47.10
2019-02-28T14:13:46.349Z,47.30
2019-02-28T14:16:14.451Z,47.60
2019-02-28T14:18:42.538Z,46.50
2019-02-28T14:21:11.855Z,46.80
2019-02-28T14:23:39.695Z,48.00
2019-02-28T14:26:07.623Z,47.10
2019-02-28T14:28:36.302Z,47.10
2019-02-28T14:31:04.260Z,47.00
2019-02-28T14:33:32.239Z,46.40
2019-02-28T14:36:00.087Z,46.80
2019-02-28T14:38:29.625Z,46.50
2019-02-28T14:40:59.354Z,46.10
2019-02-28T14:43:27.524Z,46.20
2019-02-28T14:45:56.012Z,46.10
2019-02-28T14:48:24.187Z,47.10
2019-02-28T14:50:54.150Z,47.50
2019-02-28T14:53:21.911Z,47.10
2019-02-28T14:55:49.758Z,47.10
2019-02-28T14:58:21.303Z,45.50
2019-02-28T15:00:48.028Z,45.50
2019-02-28T15:03:15.949Z,45.20
2019-02-28T15:05:43.951Z,45.90
2019-02-28T15:08:14.857Z,45.70
2019-02-28T15:10:42.037Z,45.20
2019-02-28T15:13:10.222Z,46.50
2019-02-28T15:15:38.072Z,45.60
2019-02-28T15:18:05.900Z,45.70
2019-02-28T15:20:33.742Z,46.20
2019-02-28T15:23:01.597Z,46.20
2019-02-28T15:25:29.439Z,46.80
2019-02-28T15:27:57.470Z,46.20
2019-02-28T15:30:26.479Z,46.50
2019-02-28T15:32:55.579Z,46.60
2019-02-28T15:35:23.640Z,46.60
2019-02-28T15:37:51.480Z,46.30
2019-02-28T15:40:24.638Z,47.00
2019-02-28T15:42:53.116Z,46.70
2019-02-28T15:45:20.964Z,47.20
2019-02-28T15:47:48.810Z,46.60
2019-02-28T15:50:17.154Z,46.60
2019-02-28T15:52:45.155Z,46.50
2019-02-28T15:55:13.215Z,46.60
2019-02-28T15:57:41.355Z,47.00
2019-02-28T16:00:11.208Z,46.80
2019-02-28T16:02:42.138Z,46.80
2019-02-28T16:05:08.919Z,47.40
2019-02-28T16:07:36.900Z,47.50
2019-02-28T16:10:05.279Z,48.80
2019-02-28T16:12:33.203Z,48.50
2019-02-28T16:15:01.315Z,47.50
2019-02-28T16:17:29.471Z,47.20
2019-02-28T16:19:57.388Z,47.70
2019-02-28T16:22:25.231Z,47.90
2019-02-28T16:24:53.076Z,48.20
2019-02-28T16:27:20.920Z,48.10
2019-02-28T16:29:48.759Z,48.50
2019-02-28T16:32:17.202Z,48.30
2019-02-28T16:34:45.125Z,47.90
2019-02-28T16:37:13.240Z,48.10
2019-02-28T16:39:41.083Z,48.50
2019-02-28T16:42:11.410Z,48.30
2019-02-28T16:44:38.644Z,48.90
2019-02-28T16:47:06.484Z,48.70
2019-02-28T16:49:34.324Z,49.30
2019-02-28T16:52:02.521Z,48.90
2019-02-28T16:54:31.826Z,48.90
2019-02-28T16:57:00.363Z,49.30
2019-02-28T16:59:28.398Z,49.30
2019-02-28T17:01:59.489Z,49.20
2019-02-28T17:04:27.504Z,48.80
2019-02-28T17:06:55.676Z,48.90
2019-02-28T17:09:37.926Z,48.30
2019-02-28T17:12:28.137Z,48.70
2019-02-28T17:14:57.612Z,49.00
2019-02-28T17:17:47.903Z,49.10
2019-02-28T17:20:15.947Z,49.10
2019-02-28T17:22:44.462Z,48.90
2019-02-28T17:25:14.070Z,49.00
2019-02-28T17:28:07.954Z,49.00
2019-02-28T17:30:47.191Z,48.90
2019-02-28T17:33:15.347Z,48.80
2019-02-28T17:35:43.209Z,48.80
2019-02-28T17:38:11.067Z,48.60
2019-02-28T17:40:39.254Z,48.60
2019-02-28T17:43:07.531Z,48.60
2019-02-28T17:45:36.113Z,48.60
2019-02-28T17:48:41.039Z,48.60
2019-02-28T17:51:10.612Z,48.60
2019-02-28T17:54:00.335Z,48.60
2019-02-28T17:56:59.543Z,48.40
2019-02-28T17:59:36.053Z,47.70
2019-02-28T18:02:23.591Z,47.80
2019-02-28T18:05:09.655Z,47.50
2019-02-28T18:07:46.096Z,47.60
2019-02-28T18:10:32.493Z,47.70
2019-02-28T18:13:32.111Z,47.60
2019-02-28T18:16:04.328Z,47.60
2019-02-28T18:18:51.795Z,48.30
2019-02-28T18:21:41.053Z,47.80
2019-02-28T18:24:26.857Z,47.50
2019-02-28T18:27:13.902Z,47.60
2019-02-28T18:30:00.478Z,47.70
2019-02-28T18:32:29.855Z,48.10
2019-02-28T18:34:58.255Z,48.10
2019-02-28T18:37:26.131Z,47.90
2019-02-28T18:39:53.976Z,47.80
2019-02-28T18:42:22.156Z,47.90
2019-02-28T18:44:50.001Z,47.80
2019-02-28T18:47:17.844Z,47.80
2019-02-28T18:49:45.687Z,47.80
2019-02-28T18:52:13.828Z,47.70
2019-02-28T18:54:41.676Z,47.60
2019-02-28T18:57:09.519Z,47.60
2019-02-28T18:59:37.635Z,47.70
2019-02-28T19:02:05.475Z,47.60
2019-02-28T19:04:33.315Z,47.50
2019-02-28T19:07:01.535Z,47.60
2019-02-28T19:09:29.711Z,47.60
2019-02-28T19:11:57.623Z,47.50
2019-02-28T19:14:25.851Z,47.60
2019-02-28T19:16:53.696Z,47.50
2019-02-28T19:19:21.888Z,47.50
2019-02-28T19:21:49.891Z,47.60
2019-02-28T19:24:17.730Z,47.60
2019-02-28T19:26:45.579Z,47.50
2019-02-28T19:29:13.765Z,47.50
2019-02-28T19:31:41.607Z,47.50
2019-02-28T19:34:09.456Z,47.50
2019-02-28T19:36:37.669Z,48.20
2019-02-28T19:39:06.975Z,47.50
2019-02-28T19:41:36.588Z,47.40
2019-02-28T19:44:04.956Z,47.40
2019-02-28T19:46:32.804Z,47.40
2019-02-28T19:49:00.696Z,47.40
2019-02-28T19:51:28.865Z,47.60
2019-02-28T19:53:56.743Z,47.60
2019-02-28T19:56:24.901Z,47.50
2019-02-28T19:58:52.864Z,47.60
2019-02-28T20:01:20.883Z,47.40
2019-02-28T20:03:49.011Z,47.40
2019-02-28T20:06:16.856Z,47.30
2019-02-28T20:08:44.708Z,47.30
2019-02-28T20:11:12.936Z,47.50
2019-02-28T20:13:40.775Z,47.30
2019-02-28T20:16:08.621Z,47.30
2019-02-28T20:18:37.126Z,47.30
2019-02-28T20:21:05.147Z,47.50
2019-02-28T20:23:33.067Z,47.30
2019-02-28T20:26:00.912Z,47.30
2019-02-28T20:28:28.758Z,47.30
2019-02-28T20:30:56.599Z,47.20
2019-02-28T20:33:24.759Z,48.00
2019-02-28T20:35:52.907Z,47.50
2019-02-28T20:38:21.643Z,47.70
2019-02-28T20:40:49.872Z,47.70
2019-02-28T20:43:18.043Z,47.90
2019-02-28T20:45:45.892Z,48.20
2019-02-28T20:48:14.086Z,47.90
2019-02-28T20:50:41.951Z,47.90
2019-02-28T20:53:09.790Z,47.90
2019-02-28T20:55:37.990Z,47.90
2019-02-28T20:58:06.163Z,48.10
2019-02-28T21:00:34.008Z,47.90
2019-02-28T21:03:02.203Z,47.50
2019-02-28T21:05:30.048Z,46.90
2019-02-28T21:07:57.896Z,46.70
2019-02-28T21:10:25.911Z,47.80
2019-02-28T21:12:53.755Z,48.50
2019-02-28T21:15:21.639Z,46.90
2019-02-28T21:17:49.832Z,47.30
2019-02-28T21:20:17.698Z,47.10
2019-02-28T21:22:45.540Z,47.10
2019-02-28T21:25:13.423Z,47.10
2019-02-28T21:27:41.584Z,46.80
2019-02-28T21:30:13.851Z,47.00
2019-02-28T21:32:41.695Z,46.90
2019-02-28T21:35:10.096Z,46.90
2019-02-28T21:37:37.935Z,47.00
2019-02-28T21:40:06.443Z,46.50
2019-02-28T21:42:34.284Z,47.10
2019-02-28T21:45:02.166Z,46.80
2019-02-28T21:47:30.348Z,46.80
2019-02-28T21:49:58.519Z,46.80
2019-02-28T21:52:26.364Z,46.80
2019-02-28T21:54:54.231Z,46.70
2019-02-28T21:57:22.447Z,46.70
2019-02-28T21:59:50.599Z,47.00
2019-02-28T22:02:18.787Z,46.70
2019-02-28T22:04:46.619Z,46.80
2019-02-28T22:07:14.831Z,46.70
2019-02-28T22:09:42.990Z,46.70
2019-02-28T22:12:11.162Z,46.90
2019-02-28T22:14:38.999Z,46.90
2019-02-28T22:17:06.843Z,47.00
2019-02-28T22:19:34.697Z,46.70
2019-02-28T22:22:02.940Z,46.70
2019-02-28T22:24:30.783Z,47.40
2019-02-28T22:26:59.037Z,47.40
2019-02-28T22:29:27.251Z,46.80
2019-02-28T22:32:13.210Z,46.40
2019-02-28T22:35:15.637Z,46.20
2019-02-28T22:37:43.555Z,46.60
2019-02-28T22:40:11.756Z,47.10
2019-02-28T22:42:39.596Z,46.50
2019-02-28T22:45:08.003Z,46.10
2019-02-28T22:47:35.928Z,46.50
2019-02-28T22:50:03.789Z,46.50
2019-02-28T22:52:31.903Z,46.40
2019-02-28T22:55:00.099Z,45.90
2019-02-28T22:57:28.294Z,46.10
2019-02-28T22:59:56.215Z,46.40
2019-02-28T23:02:24.137Z,46.80
2019-02-28T23:04:51.975Z,48.60
2019-02-28T23:07:19.819Z,49.00
2019-02-28T23:09:47.668Z,49.30
2019-02-28T23:12:15.555Z,49.30
2019-02-28T23:14:43.747Z,49.60
2019-02-28T23:17:11.615Z,49.60
2019-02-28T23:19:39.459Z,49.70
2019-02-28T23:22:07.327Z,49.90
2019-02-28T23:24:35.167Z,49.90
2019-02-28T23:27:18.707Z,50.00
2019-02-28T23:29:48.803Z,50.20
2019-02-28T23:32:36.260Z,50.10
2019-02-28T23:35:05.388Z,50.20
2019-02-28T23:37:33.310Z,50.30
2019-02-28T23:40:01.151Z,50.30
2019-02-28T23:42:29.015Z,50.30
2019-02-28T23:44:57.134Z,50.40
2019-02-28T23:47:25.037Z,50.20
2019-02-28T23:49:52.915Z,50.30
2019-02-28T23:52:21.143Z,50.60
2019-02-28T23:54:48.988Z,50.50
2019-02-28T23:57:17.183Z,50.50
2019-02-28T23:59:45.028Z,50.60
